TimeEST,TemperatureF,Dew PointF,Humidity,Sea Level PressureIn,VisibilityMPH,Wind Direction,Wind SpeedMPH,Gust SpeedMPH,PrecipitationIn,Events,Conditions,WindDirDegrees,DateUTC
12:15 AM,24.8,14.0,64,30.19,10.0,WNW,11.5,18.4,N/A,,Clear,290,2014-01-01 05:15:00
12:35 AM,23.0,14.0,68,30.21,10.0,NW,12.7,20.7,N/A,,Clear,310,2014-01-01 05:35:00
12:55 AM,23.0,14.0,68,30.21,10.0,NW,12.7,17.3,N/A,,Clear,310,2014-01-01 05:55:00
1:15 AM,23.0,10.4,59,30.21,10.0,NW,16.1,21.9,N/A,,Clear,310,2014-01-01 06:15:00
1:35 AM,23.0,8.6,54,30.22,10.0,NW,16.1,21.9,N/A,,Clear,310,2014-01-01 06:35:00
1:55 AM,23.0,8.6,54,30.23,10.0,NW,10.4,19.6,N/A,,Clear,310,2014-01-01 06:55:00
2:15 AM,23.0,8.6,54,30.25,10.0,WNW,12.7,18.4,N/A,,Clear,300,2014-01-01 07:15:00
2:35 AM,23.0,8.6,54,30.26,10.0,WNW,10.4,18.4,N/A,,Clear,300,2014-01-01 07:35:00
2:55 AM,23.0,8.6,54,30.27,10.0,WNW,13.8,19.6,N/A,,Clear,290,2014-01-01 07:55:00
3:15 AM,23.0,6.8,50,30.27,10.0,WNW,15.0,19.6,N/A,,Clear,290,2014-01-01 08:15:00
3:35 AM,23.0,6.8,50,30.27,10.0,WNW,12.7,20.7,N/A,,Clear,290,2014-01-01 08:35:00
3:55 AM,23.0,5.0,46,30.27,10.0,WNW,17.3,23.0,N/A,,Clear,290,2014-01-01 08:55:00
4:15 AM,23.0,5.0,46,30.28,10.0,WNW,17.3,25.3,N/A,,Clear,290,2014-01-01 09:15:00
4:35 AM,23.0,5.0,46,30.29,10.0,WNW,20.7,29.9,N/A,,Clear,300,2014-01-01 09:35:00
4:55 AM,21.2,5.0,50,30.29,10.0,NW,17.3,26.5,N/A,,Clear,310,2014-01-01 09:55:00
5:15 AM,21.2,5.0,50,30.30,10.0,NW,15.0,24.2,N/A,,Clear,310,2014-01-01 10:15:00
5:35 AM,21.2,5.0,50,30.31,10.0,NW,10.4,17.3,N/A,,Clear,310,2014-01-01 10:35:00
5:55 AM,19.4,5.0,54,30.31,10.0,WNW,10.4,-,N/A,,Clear,300,2014-01-01 10:55:00
6:15 AM,19.4,5.0,54,30.33,10.0,WNW,5.8,-,N/A,,Partly Cloudy,300,2014-01-01 11:15:00
6:35 AM,19.4,5.0,54,30.33,10.0,WNW,4.6,-,N/A,,Mostly Cloudy,300,2014-01-01 11:35:00
6:55 AM,17.6,6.8,63,30.35,10.0,NW,4.6,-,N/A,,Scattered Clouds,320,2014-01-01 11:55:00
7:15 AM,19.4,6.8,58,30.34,10.0,NW,4.6,-,N/A,,Clear,320,2014-01-01 12:15:00
7:35 AM,19.4,8.6,63,30.35,10.0,WNW,5.8,-,N/A,,Clear,300,2014-01-01 12:35:00
7:55 AM,23.0,8.6,54,30.35,10.0,WNW,9.2,17.3,N/A,,Clear,290,2014-01-01 12:55:00
8:15 AM,23.0,8.6,54,30.36,10.0,West,9.2,-,N/A,,Clear,280,2014-01-01 13:15:00
8:35 AM,24.8,8.6,50,30.36,10.0,West,12.7,19.6,N/A,,Clear,280,2014-01-01 13:35:00
8:55 AM,23.0,6.8,50,30.37,10.0,West,12.7,-,N/A,,Clear,280,2014-01-01 13:55:00
9:15 AM,23.0,6.8,50,30.38,10.0,WNW,13.8,-,N/A,,Clear,290,2014-01-01 14:15:00
9:35 AM,26.6,8.6,47,30.38,10.0,WNW,11.5,17.3,N/A,,Clear,290,2014-01-01 14:35:00
9:55 AM,26.6,6.8,43,30.38,10.0,West,18.4,24.2,N/A,,Clear,280,2014-01-01 14:55:00
10:15 AM,26.6,6.8,43,30.38,10.0,WNW,16.1,23.0,N/A,,Clear,290,2014-01-01 15:15:00
10:35 AM,26.6,5.0,40,30.38,10.0,West,16.1,23.0,N/A,,Clear,280,2014-01-01 15:35:00
10:55 AM,26.6,6.8,43,30.36,10.0,WNW,16.1,21.9,N/A,,Clear,290,2014-01-01 15:55:00
11:15 AM,26.6,6.8,43,30.35,10.0,WNW,17.3,21.9,N/A,,Clear,290,2014-01-01 16:15:00
11:35 AM,28.4,6.8,40,30.35,10.0,West,13.8,19.6,N/A,,Scattered Clouds,280,2014-01-01 16:35:00
11:55 AM,28.4,6.8,40,30.35,10.0,WNW,13.8,19.6,N/A,,Partly Cloudy,290,2014-01-01 16:55:00
12:15 PM,28.4,6.8,40,30.34,10.0,West,16.1,21.9,N/A,,Clear,260,2014-01-01 17:15:00
12:35 PM,28.4,6.8,40,30.33,10.0,West,12.7,-,N/A,,Clear,280,2014-01-01 17:35:00
12:55 PM,28.4,6.8,40,30.33,10.0,West,13.8,18.4,N/A,,Clear,280,2014-01-01 17:55:00
1:15 PM,28.4,6.8,40,30.33,10.0,West,13.8,-,N/A,,Clear,270,2014-01-01 18:15:00
1:35 PM,28.4,6.8,40,30.34,10.0,West,10.4,18.4,N/A,,Clear,270,2014-01-01 18:35:00
1:55 PM,28.4,6.8,40,30.34,10.0,WNW,12.7,19.6,N/A,,Clear,300,2014-01-01 18:55:00
2:15 PM,28.4,5.0,37,30.33,10.0,West,8.1,-,N/A,,Clear,270,2014-01-01 19:15:00
2:35 PM,28.4,6.8,40,30.34,10.0,WNW,11.5,-,N/A,,Clear,290,2014-01-01 19:35:00
2:55 PM,28.4,6.8,40,30.34,10.0,West,10.4,-,N/A,,Clear,260,2014-01-01 19:55:00
3:15 PM,28.4,6.8,40,30.33,10.0,West,9.2,-,N/A,,Clear,270,2014-01-01 20:15:00
3:35 PM,28.4,6.8,40,30.34,10.0,West,8.1,-,N/A,,Clear,280,2014-01-01 20:35:00
3:55 PM,26.6,6.8,43,30.34,10.0,West,6.9,-,N/A,,Clear,270,2014-01-01 20:55:00
4:15 PM,24.8,6.8,46,30.34,10.0,WNW,3.5,-,N/A,,Clear,290,2014-01-01 21:15:00
4:35 PM,24.8,6.8,46,30.34,10.0,NW,3.5,-,N/A,,Clear,310,2014-01-01 21:35:00
4:55 PM,24.8,6.8,46,30.34,10.0,NW,3.5,-,N/A,,Mostly Cloudy,310,2014-01-01 21:55:00
5:15 PM,24.8,6.8,46,30.35,10.0,WNW,3.5,-,N/A,,Mostly Cloudy,290,2014-01-01 22:15:00
5:35 PM,24.8,6.8,46,30.35,10.0,NW,3.5,-,N/A,,Partly Cloudy,320,2014-01-01 22:35:00
5:55 PM,24.8,6.8,46,30.35,10.0,North,3.5,-,N/A,,Mostly Cloudy,10,2014-01-01 22:55:00
6:15 PM,24.8,8.6,50,30.36,10.0,North,3.5,-,N/A,,Overcast,10,2014-01-01 23:15:00
6:35 PM,19.4,10.4,68,30.36,10.0,North,3.5,-,N/A,,Overcast,10,2014-01-01 23:35:00
6:55 PM,19.4,10.4,68,30.37,10.0,Calm,Calm,-,N/A,,Overcast,0,2014-01-01 23:55:00
7:15 PM,19.4,12.2,74,30.37,10.0,Calm,Calm,-,N/A,,Overcast,0,2014-01-02 00:15:00
7:35 PM,19.4,14.0,80,30.37,10.0,Calm,Calm,-,N/A,,Overcast,0,2014-01-02 00:35:00
7:55 PM,21.2,14.0,74,30.36,10.0,NE,3.5,-,N/A,,Overcast,40,2014-01-02 00:55:00
8:15 PM,23.0,12.2,63,30.36,10.0,Calm,Calm,-,N/A,,Overcast,0,2014-01-02 01:15:00
8:35 PM,21.2,14.0,74,30.37,10.0,Calm,Calm,-,N/A,,Overcast,0,2014-01-02 01:35:00
8:55 PM,21.2,14.0,74,30.37,10.0,Calm,Calm,-,N/A,,Overcast,0,2014-01-02 01:55:00
9:15 PM,21.2,14.0,74,30.37,10.0,Calm,Calm,-,N/A,,Overcast,0,2014-01-02 02:15:00
9:35 PM,21.2,14.0,74,30.37,10.0,Calm,Calm,-,N/A,,Overcast,0,2014-01-02 02:35:00
9:55 PM,19.4,15.8,86,30.37,10.0,North,3.5,-,N/A,,Overcast,10,2014-01-02 02:55:00
10:15 PM,21.2,14.0,74,30.37,10.0,Calm,Calm,-,N/A,,Overcast,0,2014-01-02 03:15:00
10:35 PM,23.0,14.0,68,30.37,10.0,NNE,3.5,-,N/A,,Overcast,20,2014-01-02 03:35:00
10:55 PM,23.0,14.0,68,30.37,10.0,NE,3.5,-,N/A,,Overcast,50,2014-01-02 03:55:00
11:15 PM,23.0,15.8,74,30.36,10.0,NE,3.5,-,N/A,,Overcast,40,2014-01-02 04:15:00
11:35 PM,24.8,10.4,54,30.35,10.0,NE,5.8,-,N/A,,Overcast,40,2014-01-02 04:35:00
11:55 PM,24.8,10.4,54,30.35,10.0,North,4.6,-,N/A,,Overcast,10,2014-01-02 04:55:00